sensor_id;sensor_type;location;lat;lon;timestamp;temperature;humidity
66190;DHT22;52992;52.084;5.412;2023-08-12T00:02:00;25.80;61.90
66190;DHT22;52992;52.084;5.412;2023-08-12T00:04:27;25.80;62.00
66190;DHT22;52992;52.084;5.412;2023-08-12T00:06:54;25.80;62.10
66190;DHT22;52992;52.084;5.412;2023-08-12T00:09:21;25.70;62.10
66190;DHT22;52992;52.084;5.412;2023-08-12T00:11:48;25.80;62.10
66190;DHT22;52992;52.084;5.412;2023-08-12T00:14:14;25.70;62.30
66190;DHT22;52992;52.084;5.412;2023-08-12T00:16:41;25.70;62.30
66190;DHT22;52992;52.084;5.412;2023-08-12T00:19:09;25.70;62.30
66190;DHT22;52992;52.084;5.412;2023-08-12T00:21:35;25.70;62.30
66190;DHT22;52992;52.084;5.412;2023-08-12T00:24:02;25.70;62.20
66190;DHT22;52992;52.084;5.412;2023-08-12T00:26:29;25.70;62.30
66190;DHT22;52992;52.084;5.412;2023-08-12T00:28:56;25.70;62.30
66190;DHT22;52992;52.084;5.412;2023-08-12T00:31:23;25.70;62.30
66190;DHT22;52992;52.084;5.412;2023-08-12T00:33:50;25.60;62.40
66190;DHT22;52992;52.084;5.412;2023-08-12T00:36:17;25.60;62.40
66190;DHT22;52992;52.084;5.412;2023-08-12T00:38:44;25.60;62.50
66190;DHT22;52992;52.084;5.412;2023-08-12T00:41:11;25.60;62.50
66190;DHT22;52992;52.084;5.412;2023-08-12T00:43:38;25.60;62.50
66190;DHT22;52992;52.084;5.412;2023-08-12T00:46:05;25.60;62.50
66190;DHT22;52992;52.084;5.412;2023-08-12T00:48:32;25.50;62.60
66190;DHT22;52992;52.084;5.412;2023-08-12T00:50:59;25.60;62.70
66190;DHT22;52992;52.084;5.412;2023-08-12T00:53:26;25.50;63.00
66190;DHT22;52992;52.084;5.412;2023-08-12T00:55:55;25.50;63.00
66190;DHT22;52992;52.084;5.412;2023-08-12T00:58:22;25.50;63.00
66190;DHT22;52992;52.084;5.412;2023-08-12T01:00:49;25.50;63.00
66190;DHT22;52992;52.084;5.412;2023-08-12T01:03:17;25.50;63.00
66190;DHT22;52992;52.084;5.412;2023-08-12T01:05:46;25.50;62.90
66190;DHT22;52992;52.084;5.412;2023-08-12T01:08:13;25.50;62.90
66190;DHT22;52992;52.084;5.412;2023-08-12T01:10:47;25.50;63.00
66190;DHT22;52992;52.084;5.412;2023-08-12T01:13:49;25.50;63.10
66190;DHT22;52992;52.084;5.412;2023-08-12T01:16:20;25.40;63.20
66190;DHT22;52992;52.084;5.412;2023-08-12T01:18:48;25.40;63.20
66190;DHT22;52992;52.084;5.412;2023-08-12T01:21:17;25.40;63.30
66190;DHT22;52992;52.084;5.412;2023-08-12T01:23:47;25.40;64.00
66190;DHT22;52992;52.084;5.412;2023-08-12T01:26:14;25.40;63.40
66190;DHT22;52992;52.084;5.412;2023-08-12T01:28:42;25.40;63.50
66190;DHT22;52992;52.084;5.412;2023-08-12T01:31:16;25.30;63.50
66190;DHT22;52992;52.084;5.412;2023-08-12T01:34:12;25.30;63.50
66190;DHT22;52992;52.084;5.412;2023-08-12T01:36:42;25.30;63.50
66190;DHT22;52992;52.084;5.412;2023-08-12T01:39:12;25.30;63.50
66190;DHT22;52992;52.084;5.412;2023-08-12T01:41:39;25.30;63.50
66190;DHT22;52992;52.084;5.412;2023-08-12T01:44:06;25.30;63.50
66190;DHT22;52992;52.084;5.412;2023-08-12T01:46:34;25.30;63.60
66190;DHT22;52992;52.084;5.412;2023-08-12T01:49:02;25.30;63.60
66190;DHT22;52992;52.084;5.412;2023-08-12T01:51:29;25.30;63.70
66190;DHT22;52992;52.084;5.412;2023-08-12T01:53:56;25.30;63.80
66190;DHT22;52992;52.084;5.412;2023-08-12T01:56:23;25.30;63.90
66190;DHT22;52992;52.084;5.412;2023-08-12T01:58:50;25.30;64.00
66190;DHT22;52992;52.084;5.412;2023-08-12T02:01:17;25.30;64.00
66190;DHT22;52992;52.084;5.412;2023-08-12T02:03:44;25.20;64.00
66190;DHT22;52992;52.084;5.412;2023-08-12T02:06:11;25.30;63.90
66190;DHT22;52992;52.084;5.412;2023-08-12T02:08:38;25.30;63.90
66190;DHT22;52992;52.084;5.412;2023-08-12T02:11:04;25.30;64.00
66190;DHT22;52992;52.084;5.412;2023-08-12T02:13:31;25.30;63.90
66190;DHT22;52992;52.084;5.412;2023-08-12T02:15:59;25.30;63.90
66190;DHT22;52992;52.084;5.412;2023-08-12T02:18:26;25.30;64.00
66190;DHT22;52992;52.084;5.412;2023-08-12T02:20:53;25.30;64.10
66190;DHT22;52992;52.084;5.412;2023-08-12T02:23:20;25.30;64.10
66190;DHT22;52992;52.084;5.412;2023-08-12T02:25:47;25.30;64.20
66190;DHT22;52992;52.084;5.412;2023-08-12T02:28:14;25.30;64.30
66190;DHT22;52992;52.084;5.412;2023-08-12T02:30:42;25.30;64.30
66190;DHT22;52992;52.084;5.412;2023-08-12T02:33:09;25.30;64.30
66190;DHT22;52992;52.084;5.412;2023-08-12T02:35:38;25.30;64.30
66190;DHT22;52992;52.084;5.412;2023-08-12T02:38:05;25.30;64.30
66190;DHT22;52992;52.084;5.412;2023-08-12T02:40:32;25.30;64.30
66190;DHT22;52992;52.084;5.412;2023-08-12T02:42:59;25.30;64.30
66190;DHT22;52992;52.084;5.412;2023-08-12T02:45:25;25.30;64.30
66190;DHT22;52992;52.084;5.412;2023-08-12T02:47:52;25.30;64.30
66190;DHT22;52992;52.084;5.412;2023-08-12T02:50:20;25.30;64.30
66190;DHT22;52992;52.084;5.412;2023-08-12T02:52:46;25.30;64.30
66190;DHT22;52992;52.084;5.412;2023-08-12T02:55:13;25.30;64.40
66190;DHT22;52992;52.084;5.412;2023-08-12T02:57:40;25.30;64.40
66190;DHT22;52992;52.084;5.412;2023-08-12T03:00:08;25.30;64.50
66190;DHT22;52992;52.084;5.412;2023-08-12T03:02:35;25.30;64.60
66190;DHT22;52992;52.084;5.412;2023-08-12T03:05:02;25.30;64.60
66190;DHT22;52992;52.084;5.412;2023-08-12T03:07:29;25.30;64.80
66190;DHT22;52992;52.084;5.412;2023-08-12T03:09:56;25.30;64.90
66190;DHT22;52992;52.084;5.412;2023-08-12T03:12:23;25.30;65.00
66190;DHT22;52992;52.084;5.412;2023-08-12T03:14:50;25.30;65.00
66190;DHT22;52992;52.084;5.412;2023-08-12T03:17:17;25.30;65.00
66190;DHT22;52992;52.084;5.412;2023-08-12T03:19:44;25.30;65.00
66190;DHT22;52992;52.084;5.412;2023-08-12T03:22:11;25.30;65.00
66190;DHT22;52992;52.084;5.412;2023-08-12T03:24:39;25.40;65.00
66190;DHT22;52992;52.084;5.412;2023-08-12T03:27:06;25.30;65.00
66190;DHT22;52992;52.084;5.412;2023-08-12T03:29:34;25.40;65.00
66190;DHT22;52992;52.084;5.412;2023-08-12T03:32:01;25.40;65.00
66190;DHT22;52992;52.084;5.412;2023-08-12T03:34:31;25.40;64.90
66190;DHT22;52992;52.084;5.412;2023-08-12T03:36:58;25.40;65.00
66190;DHT22;52992;52.084;5.412;2023-08-12T03:39:26;25.40;65.00
66190;DHT22;52992;52.084;5.412;2023-08-12T03:41:54;25.40;65.10
66190;DHT22;52992;52.084;5.412;2023-08-12T03:44:21;25.50;65.00
66190;DHT22;52992;52.084;5.412;2023-08-12T03:46:48;25.40;65.00
66190;DHT22;52992;52.084;5.412;2023-08-12T03:49:15;25.40;65.10
66190;DHT22;52992;52.084;5.412;2023-08-12T03:51:43;25.40;65.20
66190;DHT22;52992;52.084;5.412;2023-08-12T03:54:10;25.40;65.20
66190;DHT22;52992;52.084;5.412;2023-08-12T03:56:37;25.40;65.20
66190;DHT22;52992;52.084;5.412;2023-08-12T03:59:04;25.40;65.20
66190;DHT22;52992;52.084;5.412;2023-08-12T04:01:31;25.40;65.20
66190;DHT22;52992;52.084;5.412;2023-08-12T04:03:58;25.40;65.30
66190;DHT22;52992;52.084;5.412;2023-08-12T04:06:25;25.40;65.40
66190;DHT22;52992;52.084;5.412;2023-08-12T04:08:52;25.40;65.50
66190;DHT22;52992;52.084;5.412;2023-08-12T04:11:19;25.40;65.50
66190;DHT22;52992;52.084;5.412;2023-08-12T04:13:46;25.40;65.60
66190;DHT22;52992;52.084;5.412;2023-08-12T04:16:13;25.40;65.50
66190;DHT22;52992;52.084;5.412;2023-08-12T04:18:40;25.50;65.50
66190;DHT22;52992;52.084;5.412;2023-08-12T04:21:07;25.40;65.50
66190;DHT22;52992;52.084;5.412;2023-08-12T04:23:34;25.40;65.80
66190;DHT22;52992;52.084;5.412;2023-08-12T04:26:01;25.40;66.00
66190;DHT22;52992;52.084;5.412;2023-08-12T04:28:29;25.30;66.20
66190;DHT22;52992;52.084;5.412;2023-08-12T04:30:55;25.30;66.50
66190;DHT22;52992;52.084;5.412;2023-08-12T04:33:24;25.30;66.70
66190;DHT22;52992;52.084;5.412;2023-08-12T04:35:52;25.30;66.60
66190;DHT22;52992;52.084;5.412;2023-08-12T04:38:21;25.40;66.50
66190;DHT22;52992;52.084;5.412;2023-08-12T04:40:49;25.40;66.30
66190;DHT22;52992;52.084;5.412;2023-08-12T04:43:16;25.50;66.10
66190;DHT22;52992;52.084;5.412;2023-08-12T04:45:47;25.60;66.00
66190;DHT22;52992;52.084;5.412;2023-08-12T04:48:16;25.50;66.00
66190;DHT22;52992;52.084;5.412;2023-08-12T04:50:43;25.60;66.70
66190;DHT22;52992;52.084;5.412;2023-08-12T04:53:10;25.50;65.90
66190;DHT22;52992;52.084;5.412;2023-08-12T04:55:37;25.60;65.90
66190;DHT22;52992;52.084;5.412;2023-08-12T04:58:05;25.60;65.80
66190;DHT22;52992;52.084;5.412;2023-08-12T05:00:32;25.60;65.80
66190;DHT22;52992;52.084;5.412;2023-08-12T05:03:00;25.60;65.80
66190;DHT22;52992;52.084;5.412;2023-08-12T05:05:27;25.60;65.80
66190;DHT22;52992;52.084;5.412;2023-08-12T05:07:54;25.60;65.80
66190;DHT22;52992;52.084;5.412;2023-08-12T05:10:22;25.60;65.90
66190;DHT22;52992;52.084;5.412;2023-08-12T05:12:50;25.60;65.90
66190;DHT22;52992;52.084;5.412;2023-08-12T05:15:19;25.60;66.00
66190;DHT22;52992;52.084;5.412;2023-08-12T05:17:47;25.60;66.00
66190;DHT22;52992;52.084;5.412;2023-08-12T05:20:17;25.60;66.00
66190;DHT22;52992;52.084;5.412;2023-08-12T05:22:44;25.60;66.00
66190;DHT22;52992;52.084;5.412;2023-08-12T05:25:11;25.60;66.10
66190;DHT22;52992;52.084;5.412;2023-08-12T05:27:38;25.50;66.20
66190;DHT22;52992;52.084;5.412;2023-08-12T05:30:06;25.60;66.20
66190;DHT22;52992;52.084;5.412;2023-08-12T05:32:33;25.60;66.10
66190;DHT22;52992;52.084;5.412;2023-08-12T05:35:00;25.60;66.20
66190;DHT22;52992;52.084;5.412;2023-08-12T05:37:26;25.50;66.30
66190;DHT22;52992;52.084;5.412;2023-08-12T05:39:53;25.60;66.30
66190;DHT22;52992;52.084;5.412;2023-08-12T05:42:20;25.50;66.30
66190;DHT22;52992;52.084;5.412;2023-08-12T05:44:47;25.50;66.30
66190;DHT22;52992;52.084;5.412;2023-08-12T05:47:14;25.50;66.40
66190;DHT22;52992;52.084;5.412;2023-08-12T05:49:41;25.50;66.50
66190;DHT22;52992;52.084;5.412;2023-08-12T05:52:09;25.50;66.60
66190;DHT22;52992;52.084;5.412;2023-08-12T05:54:37;25.50;66.80
66190;DHT22;52992;52.084;5.412;2023-08-12T05:57:04;25.40;67.00
66190;DHT22;52992;52.084;5.412;2023-08-12T05:59:31;25.40;67.20
66190;DHT22;52992;52.084;5.412;2023-08-12T06:01:57;25.30;67.40
66190;DHT22;52992;52.084;5.412;2023-08-12T06:04:24;25.30;67.50
66190;DHT22;52992;52.084;5.412;2023-08-12T06:06:51;25.30;67.50
66190;DHT22;52992;52.084;5.412;2023-08-12T06:09:18;25.30;67.60
66190;DHT22;52992;52.084;5.412;2023-08-12T06:11:45;25.30;67.60
66190;DHT22;52992;52.084;5.412;2023-08-12T06:14:12;25.30;67.60
66190;DHT22;52992;52.084;5.412;2023-08-12T06:16:39;25.30;67.60
66190;DHT22;52992;52.084;5.412;2023-08-12T06:19:06;25.30;68.00
66190;DHT22;52992;52.084;5.412;2023-08-12T06:21:33;25.20;68.70
66190;DHT22;52992;52.084;5.412;2023-08-12T06:24:00;25.10;69.10
66190;DHT22;52992;52.084;5.412;2023-08-12T06:26:27;25.10;69.40
66190;DHT22;52992;52.084;5.412;2023-08-12T06:28:54;25.10;69.90
66190;DHT22;52992;52.084;5.412;2023-08-12T06:31:21;25.10;69.60
66190;DHT22;52992;52.084;5.412;2023-08-12T06:33:48;25.10;69.60
66190;DHT22;52992;52.084;5.412;2023-08-12T06:36:14;25.10;70.00
66190;DHT22;52992;52.084;5.412;2023-08-12T06:38:41;25.00;70.10
66190;DHT22;52992;52.084;5.412;2023-08-12T06:41:08;24.90;70.50
66190;DHT22;52992;52.084;5.412;2023-08-12T06:43:35;24.90;70.70
66190;DHT22;52992;52.084;5.412;2023-08-12T06:46:02;24.90;70.90
66190;DHT22;52992;52.084;5.412;2023-08-12T06:48:29;24.90;71.40
66190;DHT22;52992;52.084;5.412;2023-08-12T06:50:56;24.80;72.60
66190;DHT22;52992;52.084;5.412;2023-08-12T06:53:25;24.60;73.70
66190;DHT22;52992;52.084;5.412;2023-08-12T06:55:52;24.50;75.40
66190;DHT22;52992;52.084;5.412;2023-08-12T06:58:19;24.40;77.00
66190;DHT22;52992;52.084;5.412;2023-08-12T07:00:46;24.30;78.10
66190;DHT22;52992;52.084;5.412;2023-08-12T07:03:13;24.20;79.10
66190;DHT22;52992;52.084;5.412;2023-08-12T07:05:40;24.30;79.80
66190;DHT22;52992;52.084;5.412;2023-08-12T07:08:07;24.30;80.40
66190;DHT22;52992;52.084;5.412;2023-08-12T07:10:34;24.20;80.70
66190;DHT22;52992;52.084;5.412;2023-08-12T07:13:00;24.20;81.50
66190;DHT22;52992;52.084;5.412;2023-08-12T07:15:27;24.10;81.60
66190;DHT22;52992;52.084;5.412;2023-08-12T07:17:54;24.10;82.50
66190;DHT22;52992;52.084;5.412;2023-08-12T07:20:22;24.00;83.00
66190;DHT22;52992;52.084;5.412;2023-08-12T07:22:49;24.00;83.80
66190;DHT22;52992;52.084;5.412;2023-08-12T07:25:16;24.00;84.20
66190;DHT22;52992;52.084;5.412;2023-08-12T07:27:43;24.00;84.70
66190;DHT22;52992;52.084;5.412;2023-08-12T07:30:10;23.90;85.00
66190;DHT22;52992;52.084;5.412;2023-08-12T07:32:38;23.90;85.60
66190;DHT22;52992;52.084;5.412;2023-08-12T07:35:05;23.90;85.60
66190;DHT22;52992;52.084;5.412;2023-08-12T07:37:32;23.90;86.20
66190;DHT22;52992;52.084;5.412;2023-08-12T07:39:59;23.90;86.60
66190;DHT22;52992;52.084;5.412;2023-08-12T07:42:26;23.90;86.20
66190;DHT22;52992;52.084;5.412;2023-08-12T07:44:53;23.90;86.50
66190;DHT22;52992;52.084;5.412;2023-08-12T07:47:20;23.90;86.70
66190;DHT22;52992;52.084;5.412;2023-08-12T07:49:47;23.90;86.50
66190;DHT22;52992;52.084;5.412;2023-08-12T07:52:14;23.90;86.70
66190;DHT22;52992;52.084;5.412;2023-08-12T07:54:41;23.90;86.90
66190;DHT22;52992;52.084;5.412;2023-08-12T07:57:08;24.00;86.80
66190;DHT22;52992;52.084;5.412;2023-08-12T07:59:35;24.00;86.80
66190;DHT22;52992;52.084;5.412;2023-08-12T08:02:02;24.00;87.00
66190;DHT22;52992;52.084;5.412;2023-08-12T08:04:29;24.00;87.20
66190;DHT22;52992;52.084;5.412;2023-08-12T08:06:55;24.00;87.50
66190;DHT22;52992;52.084;5.412;2023-08-12T08:09:22;23.90;87.60
66190;DHT22;52992;52.084;5.412;2023-08-12T08:11:49;23.90;88.30
66190;DHT22;52992;52.084;5.412;2023-08-12T08:14:16;23.90;88.60
66190;DHT22;52992;52.084;5.412;2023-08-12T08:16:43;23.90;88.20
66190;DHT22;52992;52.084;5.412;2023-08-12T08:19:10;23.90;88.70
66190;DHT22;52992;52.084;5.412;2023-08-12T08:21:39;23.90;88.70
66190;DHT22;52992;52.084;5.412;2023-08-12T08:24:07;24.00;89.00
66190;DHT22;52992;52.084;5.412;2023-08-12T08:26:35;24.00;88.50
66190;DHT22;52992;52.084;5.412;2023-08-12T08:29:02;24.00;88.50
66190;DHT22;52992;52.084;5.412;2023-08-12T08:31:29;24.00;88.60
66190;DHT22;52992;52.084;5.412;2023-08-12T08:33:56;23.90;88.90
66190;DHT22;52992;52.084;5.412;2023-08-12T08:36:23;23.90;89.70
66190;DHT22;52992;52.084;5.412;2023-08-12T08:38:50;23.80;90.10
66190;DHT22;52992;52.084;5.412;2023-08-12T08:41:17;23.90;90.40
66190;DHT22;52992;52.084;5.412;2023-08-12T08:43:47;23.90;90.80
66190;DHT22;52992;52.084;5.412;2023-08-12T08:46:15;23.90;91.10
66190;DHT22;52992;52.084;5.412;2023-08-12T08:48:43;24.00;90.00
66190;DHT22;52992;52.084;5.412;2023-08-12T08:51:11;24.00;90.30
66190;DHT22;52992;52.084;5.412;2023-08-12T08:53:39;24.10;91.10
66190;DHT22;52992;52.084;5.412;2023-08-12T08:56:09;24.10;90.30
66190;DHT22;52992;52.084;5.412;2023-08-12T08:58:41;24.10;90.60
66190;DHT22;52992;52.084;5.412;2023-08-12T09:01:09;24.10;90.50
66190;DHT22;52992;52.084;5.412;2023-08-12T09:03:38;24.00;89.60
66190;DHT22;52992;52.084;5.412;2023-08-12T09:06:05;23.90;90.20
66190;DHT22;52992;52.084;5.412;2023-08-12T09:08:33;23.90;90.20
66190;DHT22;52992;52.084;5.412;2023-08-12T09:11:02;23.80;89.70
66190;DHT22;52992;52.084;5.412;2023-08-12T09:13:30;23.60;87.80
66190;DHT22;52992;52.084;5.412;2023-08-12T09:15:58;23.40;87.20
66190;DHT22;52992;52.084;5.412;2023-08-12T09:18:26;23.20;87.10
66190;DHT22;52992;52.084;5.412;2023-08-12T09:20:55;23.10;87.10
66190;DHT22;52992;52.084;5.412;2023-08-12T09:23:23;22.90;86.80
66190;DHT22;52992;52.084;5.412;2023-08-12T09:25:49;22.80;87.80
66190;DHT22;52992;52.084;5.412;2023-08-12T09:28:16;22.80;88.00
66190;DHT22;52992;52.084;5.412;2023-08-12T09:30:50;22.90;87.00
66190;DHT22;52992;52.084;5.412;2023-08-12T09:33:24;22.80;86.90
66190;DHT22;52992;52.084;5.412;2023-08-12T09:35:55;22.80;87.20
66190;DHT22;52992;52.084;5.412;2023-08-12T09:38:23;22.80;87.60
66190;DHT22;52992;52.084;5.412;2023-08-12T09:40:52;22.80;88.00
66190;DHT22;52992;52.084;5.412;2023-08-12T09:43:23;22.90;87.90
66190;DHT22;52992;52.084;5.412;2023-08-12T09:45:51;22.80;87.00
66190;DHT22;52992;52.084;5.412;2023-08-12T09:48:18;22.80;87.20
66190;DHT22;52992;52.084;5.412;2023-08-12T09:50:45;22.80;88.40
66190;DHT22;52992;52.084;5.412;2023-08-12T09:53:12;22.90;88.40
66190;DHT22;52992;52.084;5.412;2023-08-12T09:55:39;23.00;88.30
66190;DHT22;52992;52.084;5.412;2023-08-12T09:58:10;22.90;87.50
66190;DHT22;52992;52.084;5.412;2023-08-12T10:00:38;22.90;87.10
66190;DHT22;52992;52.084;5.412;2023-08-12T10:03:08;22.80;87.50
66190;DHT22;52992;52.084;5.412;2023-08-12T10:05:37;22.80;89.60
66190;DHT22;52992;52.084;5.412;2023-08-12T10:08:04;23.00;89.90
66190;DHT22;52992;52.084;5.412;2023-08-12T10:10:34;23.20;89.20
66190;DHT22;52992;52.084;5.412;2023-08-12T10:13:01;23.30;89.10
66190;DHT22;52992;52.084;5.412;2023-08-12T10:15:29;23.50;88.30
66190;DHT22;52992;52.084;5.412;2023-08-12T10:17:56;23.60;88.10
66190;DHT22;52992;52.084;5.412;2023-08-12T10:20:24;23.90;88.40
66190;DHT22;52992;52.084;5.412;2023-08-12T10:22:52;24.40;86.70
66190;DHT22;52992;52.084;5.412;2023-08-12T10:25:20;25.20;82.50
66190;DHT22;52992;52.084;5.412;2023-08-12T10:27:50;26.20;77.70
66190;DHT22;52992;52.084;5.412;2023-08-12T10:30:17;27.70;69.90
66190;DHT22;52992;52.084;5.412;2023-08-12T10:32:45;28.70;65.90
66190;DHT22;52992;52.084;5.412;2023-08-12T10:35:13;29.30;65.00
66190;DHT22;52992;52.084;5.412;2023-08-12T10:37:40;29.90;63.60
66190;DHT22;52992;52.084;5.412;2023-08-12T10:40:20;30.30;61.90
66190;DHT22;52992;52.084;5.412;2023-08-12T10:42:48;30.20;65.80
66190;DHT22;52992;52.084;5.412;2023-08-12T10:45:17;30.10;65.30
66190;DHT22;52992;52.084;5.412;2023-08-12T10:50:31;28.30;71.20
66190;DHT22;52992;52.084;5.412;2023-08-12T10:52:58;27.50;73.00
66190;DHT22;52992;52.084;5.412;2023-08-12T10:55:26;27.10;75.50
66190;DHT22;52992;52.084;5.412;2023-08-12T10:57:57;27.70;73.40
66190;DHT22;52992;52.084;5.412;2023-08-12T11:00:25;28.60;69.60
66190;DHT22;52992;52.084;5.412;2023-08-12T11:02:54;29.80;64.00
66190;DHT22;52992;52.084;5.412;2023-08-12T11:05:22;30.10;62.40
66190;DHT22;52992;52.084;5.412;2023-08-12T11:08:00;29.30;63.30
66190;DHT22;52992;52.084;5.412;2023-08-12T11:10:34;28.60;67.40
66190;DHT22;52992;52.084;5.412;2023-08-12T11:13:03;28.60;67.80
66190;DHT22;52992;52.084;5.412;2023-08-12T11:15:38;29.20;63.40
66190;DHT22;52992;52.084;5.412;2023-08-12T11:18:15;28.50;65.50
66190;DHT22;52992;52.084;5.412;2023-08-12T11:20:43;28.30;66.90
66190;DHT22;52992;52.084;5.412;2023-08-12T11:23:10;27.80;67.70
66190;DHT22;52992;52.084;5.412;2023-08-12T11:25:39;27.70;67.60
66190;DHT22;52992;52.084;5.412;2023-08-12T11:28:07;27.70;67.40
66190;DHT22;52992;52.084;5.412;2023-08-12T11:30:34;27.50;67.30
66190;DHT22;52992;52.084;5.412;2023-08-12T11:33:02;27.40;68.30
66190;DHT22;52992;52.084;5.412;2023-08-12T11:35:30;27.80;66.60
66190;DHT22;52992;52.084;5.412;2023-08-12T11:37:58;28.40;63.60
66190;DHT22;52992;52.084;5.412;2023-08-12T11:40:27;28.80;62.40
66190;DHT22;52992;52.084;5.412;2023-08-12T11:42:55;29.00;62.70
66190;DHT22;52992;52.084;5.412;2023-08-12T11:45:26;28.50;61.90
66190;DHT22;52992;52.084;5.412;2023-08-12T11:47:53;27.90;64.20
66190;DHT22;52992;52.084;5.412;2023-08-12T11:50:24;27.60;66.50
66190;DHT22;52992;52.084;5.412;2023-08-12T11:52:52;27.40;67.80
66190;DHT22;52992;52.084;5.412;2023-08-12T11:55:19;27.40;67.20
66190;DHT22;52992;52.084;5.412;2023-08-12T11:57:47;27.30;67.10
66190;DHT22;52992;52.084;5.412;2023-08-12T12:00:14;27.40;68.30
66190;DHT22;52992;52.084;5.412;2023-08-12T12:02:48;27.70;67.50
66190;DHT22;52992;52.084;5.412;2023-08-12T12:05:18;27.90;66.50
66190;DHT22;52992;52.084;5.412;2023-08-12T12:07:50;27.90;65.70
66190;DHT22;52992;52.084;5.412;2023-08-12T12:10:28;27.80;65.90
66190;DHT22;52992;52.084;5.412;2023-08-12T12:13:01;27.50;66.10
66190;DHT22;52992;52.084;5.412;2023-08-12T12:15:30;27.30;66.20
66190;DHT22;52992;52.084;5.412;2023-08-12T12:17:58;27.00;67.30
66190;DHT22;52992;52.084;5.412;2023-08-12T12:20:25;26.80;65.20
66190;DHT22;52992;52.084;5.412;2023-08-12T12:22:54;26.60;66.20
66190;DHT22;52992;52.084;5.412;2023-08-12T12:25:21;26.60;67.00
66190;DHT22;52992;52.084;5.412;2023-08-12T12:27:49;26.60;66.30
66190;DHT22;52992;52.084;5.412;2023-08-12T12:30:16;26.60;65.90
66190;DHT22;52992;52.084;5.412;2023-08-12T12:32:43;26.50;65.80
66190;DHT22;52992;52.084;5.412;2023-08-12T12:35:12;26.50;66.90
66190;DHT22;52992;52.084;5.412;2023-08-12T12:37:39;26.60;66.80
66190;DHT22;52992;52.084;5.412;2023-08-12T12:40:07;26.70;65.30
66190;DHT22;52992;52.084;5.412;2023-08-12T12:42:34;26.80;65.80
66190;DHT22;52992;52.084;5.412;2023-08-12T12:45:01;26.80;64.60
66190;DHT22;52992;52.084;5.412;2023-08-12T12:47:28;26.80;64.60
66190;DHT22;52992;52.084;5.412;2023-08-12T12:49:55;26.90;64.10
66190;DHT22;52992;52.084;5.412;2023-08-12T12:52:22;27.10;63.60
66190;DHT22;52992;52.084;5.412;2023-08-12T12:54:49;27.30;61.80
66190;DHT22;52992;52.084;5.412;2023-08-12T12:57:16;27.50;60.50
66190;DHT22;52992;52.084;5.412;2023-08-12T12:59:43;27.50;60.80
66190;DHT22;52992;52.084;5.412;2023-08-12T13:02:10;27.70;60.80
66190;DHT22;52992;52.084;5.412;2023-08-12T13:04:37;27.70;60.90
66190;DHT22;52992;52.084;5.412;2023-08-12T13:07:04;27.50;60.90
66190;DHT22;52992;52.084;5.412;2023-08-12T13:09:31;27.30;62.00
66190;DHT22;52992;52.084;5.412;2023-08-12T13:11:58;27.20;62.10
66190;DHT22;52992;52.084;5.412;2023-08-12T13:14:25;27.20;62.00
66190;DHT22;52992;52.084;5.412;2023-08-12T13:16:52;27.20;62.00
66190;DHT22;52992;52.084;5.412;2023-08-12T13:19:19;27.20;62.30
66190;DHT22;52992;52.084;5.412;2023-08-12T13:21:46;27.10;61.90
66190;DHT22;52992;52.084;5.412;2023-08-12T13:24:13;27.00;61.80
66190;DHT22;52992;52.084;5.412;2023-08-12T13:26:40;27.00;61.80
66190;DHT22;52992;52.084;5.412;2023-08-12T13:29:07;27.00;61.90
66190;DHT22;52992;52.084;5.412;2023-08-12T13:31:34;27.10;62.10
66190;DHT22;52992;52.084;5.412;2023-08-12T13:34:01;27.10;62.00
66190;DHT22;52992;52.084;5.412;2023-08-12T13:36:28;27.10;61.50
66190;DHT22;52992;52.084;5.412;2023-08-12T13:38:57;27.20;62.60
66190;DHT22;52992;52.084;5.412;2023-08-12T13:41:26;27.20;60.50
66190;DHT22;52992;52.084;5.412;2023-08-12T13:43:53;27.20;61.10
66190;DHT22;52992;52.084;5.412;2023-08-12T13:46:21;27.10;61.10
66190;DHT22;52992;52.084;5.412;2023-08-12T13:48:48;27.00;61.40
66190;DHT22;52992;52.084;5.412;2023-08-12T13:51:15;26.90;60.60
66190;DHT22;52992;52.084;5.412;2023-08-12T13:53:42;26.80;61.20
66190;DHT22;52992;52.084;5.412;2023-08-12T13:56:09;26.60;61.20
66190;DHT22;52992;52.084;5.412;2023-08-12T13:58:37;26.40;60.50
66190;DHT22;52992;52.084;5.412;2023-08-12T14:01:04;26.30;59.20
66190;DHT22;52992;52.084;5.412;2023-08-12T14:03:32;26.20;59.90
66190;DHT22;52992;52.084;5.412;2023-08-12T14:05:59;26.10;59.70
66190;DHT22;52992;52.084;5.412;2023-08-12T14:08:26;26.10;60.90
66190;DHT22;52992;52.084;5.412;2023-08-12T14:10:53;26.10;61.20
66190;DHT22;52992;52.084;5.412;2023-08-12T14:13:20;26.10;60.20
66190;DHT22;52992;52.084;5.412;2023-08-12T14:15:47;26.10;60.70
66190;DHT22;52992;52.084;5.412;2023-08-12T14:18:14;26.10;59.20
66190;DHT22;52992;52.084;5.412;2023-08-12T14:20:42;26.10;57.30
66190;DHT22;52992;52.084;5.412;2023-08-12T14:23:09;26.10;58.60
66190;DHT22;52992;52.084;5.412;2023-08-12T14:25:36;26.10;59.70
66190;DHT22;52992;52.084;5.412;2023-08-12T14:28:03;26.10;58.80
66190;DHT22;52992;52.084;5.412;2023-08-12T14:30:30;26.20;58.40
66190;DHT22;52992;52.084;5.412;2023-08-12T14:32:57;26.20;58.40
66190;DHT22;52992;52.084;5.412;2023-08-12T14:35:24;26.30;59.10
66190;DHT22;52992;52.084;5.412;2023-08-12T14:37:51;26.20;58.60
66190;DHT22;52992;52.084;5.412;2023-08-12T14:40:18;26.20;59.50
66190;DHT22;52992;52.084;5.412;2023-08-12T14:42:45;26.10;59.10
66190;DHT22;52992;52.084;5.412;2023-08-12T14:45:12;26.10;59.10
66190;DHT22;52992;52.084;5.412;2023-08-12T14:47:39;26.10;58.90
66190;DHT22;52992;52.084;5.412;2023-08-12T14:50:07;26.20;59.10
66190;DHT22;52992;52.084;5.412;2023-08-12T14:52:35;26.20;59.10
66190;DHT22;52992;52.084;5.412;2023-08-12T14:55:02;26.30;57.80
66190;DHT22;52992;52.084;5.412;2023-08-12T14:57:29;26.40;56.20
66190;DHT22;52992;52.084;5.412;2023-08-12T14:59:56;26.50;53.80
66190;DHT22;52992;52.084;5.412;2023-08-12T15:02:23;26.50;55.30
66190;DHT22;52992;52.084;5.412;2023-08-12T15:04:50;26.40;53.60
66190;DHT22;52992;52.084;5.412;2023-08-12T15:07:17;26.40;53.80
66190;DHT22;52992;52.084;5.412;2023-08-12T15:09:46;26.30;54.00
66190;DHT22;52992;52.084;5.412;2023-08-12T15:12:13;26.30;54.10
66190;DHT22;52992;52.084;5.412;2023-08-12T15:14:39;26.30;53.30
66190;DHT22;52992;52.084;5.412;2023-08-12T15:17:06;26.30;54.10
66190;DHT22;52992;52.084;5.412;2023-08-12T15:19:34;26.30;55.40
66190;DHT22;52992;52.084;5.412;2023-08-12T15:22:01;26.20;55.00
66190;DHT22;52992;52.084;5.412;2023-08-12T15:24:28;26.20;54.80
66190;DHT22;52992;52.084;5.412;2023-08-12T15:26:55;26.10;55.40
66190;DHT22;52992;52.084;5.412;2023-08-12T15:29:22;26.20;55.00
66190;DHT22;52992;52.084;5.412;2023-08-12T15:31:50;26.10;54.90
66190;DHT22;52992;52.084;5.412;2023-08-12T15:34:17;26.10;55.00
66190;DHT22;52992;52.084;5.412;2023-08-12T15:36:44;26.00;55.30